sensor_id;sensor_type;location;lat;lon;timestamp;temperature;humidity
24772;DHT22;12870;52.274;9.754;2023-03-13T00:00:48;9.70;99.90
24772;DHT22;12870;52.274;9.754;2023-03-13T00:03:14;9.70;99.90
24772;DHT22;12870;52.274;9.754;2023-03-13T00:05:39;9.70;99.90
24772;DHT22;12870;52.274;9.754;2023-03-13T00:08:05;9.70;99.90
24772;DHT22;12870;52.274;9.754;2023-03-13T00:10:31;9.70;99.90
24772;DHT22;12870;52.274;9.754;2023-03-13T00:12:56;9.70;99.90
24772;DHT22;12870;52.274;9.754;2023-03-13T00:15:22;9.70;99.90
24772;DHT22;12870;52.274;9.754;2023-03-13T00:17:48;9.70;99.90
24772;DHT22;12870;52.274;9.754;2023-03-13T00:20:13;9.70;99.90
24772;DHT22;12870;52.274;9.754;2023-03-13T00:22:41;9.70;99.90
24772;DHT22;12870;52.274;9.754;2023-03-13T00:25:07;9.70;99.90
24772;DHT22;12870;52.274;9.754;2023-03-13T00:27:33;9.70;99.90
24772;DHT22;12870;52.274;9.754;2023-03-13T00:29:59;9.60;99.90
24772;DHT22;12870;52.274;9.754;2023-03-13T00:32:25;9.60;99.90
24772;DHT22;12870;52.274;9.754;2023-03-13T00:34:50;9.50;99.90
24772;DHT22;12870;52.274;9.754;2023-03-13T00:37:16;9.50;99.90
24772;DHT22;12870;52.274;9.754;2023-03-13T00:39:42;9.50;99.90
24772;DHT22;12870;52.274;9.754;2023-03-13T00:42:07;9.50;99.90
24772;DHT22;12870;52.274;9.754;2023-03-13T00:44:33;9.50;99.90
24772;DHT22;12870;52.274;9.754;2023-03-13T00:46:58;9.50;99.90
24772;DHT22;12870;52.274;9.754;2023-03-13T00:49:24;9.50;99.90
24772;DHT22;12870;52.274;9.754;2023-03-13T00:51:50;9.50;99.90
24772;DHT22;12870;52.274;9.754;2023-03-13T00:54:16;9.50;99.90
24772;DHT22;12870;52.274;9.754;2023-03-13T00:56:41;9.50;99.90
24772;DHT22;12870;52.274;9.754;2023-03-13T00:59:07;9.50;99.90
24772;DHT22;12870;52.274;9.754;2023-03-13T01:01:34;9.40;99.90
24772;DHT22;12870;52.274;9.754;2023-03-13T01:04:08;9.50;99.90
24772;DHT22;12870;52.274;9.754;2023-03-13T01:06:36;9.50;99.90
24772;DHT22;12870;52.274;9.754;2023-03-13T01:09:03;9.60;99.90
24772;DHT22;12870;52.274;9.754;2023-03-13T01:11:31;9.60;99.90
24772;DHT22;12870;52.274;9.754;2023-03-13T01:14:00;9.70;99.90
24772;DHT22;12870;52.274;9.754;2023-03-13T01:16:28;9.70;99.90
24772;DHT22;12870;52.274;9.754;2023-03-13T01:18:56;9.80;99.90
24772;DHT22;12870;52.274;9.754;2023-03-13T01:21:22;9.80;99.90
24772;DHT22;12870;52.274;9.754;2023-03-13T01:23:49;9.80;99.90
24772;DHT22;12870;52.274;9.754;2023-03-13T01:26:16;9.80;99.90
24772;DHT22;12870;52.274;9.754;2023-03-13T01:28:42;9.80;99.90
24772;DHT22;12870;52.274;9.754;2023-03-13T01:31:19;9.80;99.90
24772;DHT22;12870;52.274;9.754;2023-03-13T01:33:48;9.70;99.90
24772;DHT22;12870;52.274;9.754;2023-03-13T01:36:14;9.70;99.90
24772;DHT22;12870;52.274;9.754;2023-03-13T01:38:41;9.70;99.90
24772;DHT22;12870;52.274;9.754;2023-03-13T01:41:08;9.60;99.90
24772;DHT22;12870;52.274;9.754;2023-03-13T01:43:36;9.60;99.90
24772;DHT22;12870;52.274;9.754;2023-03-13T01:51:58;9.50;99.90
24772;DHT22;12870;52.274;9.754;2023-03-13T01:57:24;9.50;99.90
24772;DHT22;12870;52.274;9.754;2023-03-13T02:00:14;9.40;99.90
24772;DHT22;12870;52.274;9.754;2023-03-13T02:02:48;9.40;99.90
24772;DHT22;12870;52.274;9.754;2023-03-13T02:05:16;9.40;99.90
24772;DHT22;12870;52.274;9.754;2023-03-13T02:07:47;9.40;99.90
24772;DHT22;12870;52.274;9.754;2023-03-13T02:10:14;9.30;99.90
24772;DHT22;12870;52.274;9.754;2023-03-13T02:12:43;9.30;99.90
24772;DHT22;12870;52.274;9.754;2023-03-13T02:15:12;9.20;99.90
24772;DHT22;12870;52.274;9.754;2023-03-13T02:17:39;9.20;99.90
24772;DHT22;12870;52.274;9.754;2023-03-13T02:20:07;9.20;99.90
24772;DHT22;12870;52.274;9.754;2023-03-13T02:22:44;9.20;99.90
24772;DHT22;12870;52.274;9.754;2023-03-13T02:28:08;9.30;99.90
24772;DHT22;12870;52.274;9.754;2023-03-13T02:30:35;9.30;99.90
24772;DHT22;12870;52.274;9.754;2023-03-13T02:33:02;9.30;99.90
24772;DHT22;12870;52.274;9.754;2023-03-13T02:35:29;9.30;99.90
24772;DHT22;12870;52.274;9.754;2023-03-13T02:38:01;9.40;99.90
24772;DHT22;12870;52.274;9.754;2023-03-13T02:40:30;9.30;99.90
24772;DHT22;12870;52.274;9.754;2023-03-13T02:43:00;9.40;99.90
24772;DHT22;12870;52.274;9.754;2023-03-13T02:45:26;9.40;99.90
24772;DHT22;12870;52.274;9.754;2023-03-13T02:47:51;9.40;99.90
24772;DHT22;12870;52.274;9.754;2023-03-13T02:50:17;9.40;99.90
24772;DHT22;12870;52.274;9.754;2023-03-13T02:52:49;9.40;99.90
24772;DHT22;12870;52.274;9.754;2023-03-13T02:55:26;9.40;99.90
24772;DHT22;12870;52.274;9.754;2023-03-13T02:57:52;9.40;99.90
24772;DHT22;12870;52.274;9.754;2023-03-13T03:00:18;9.40;99.90
24772;DHT22;12870;52.274;9.754;2023-03-13T03:02:44;9.40;99.90
24772;DHT22;12870;52.274;9.754;2023-03-13T03:05:11;9.40;99.90
24772;DHT22;12870;52.274;9.754;2023-03-13T03:07:37;9.40;99.90
24772;DHT22;12870;52.274;9.754;2023-03-13T03:10:03;9.50;99.90
24772;DHT22;12870;52.274;9.754;2023-03-13T03:12:29;9.50;99.90
24772;DHT22;12870;52.274;9.754;2023-03-13T03:14:55;9.50;99.90
24772;DHT22;12870;52.274;9.754;2023-03-13T03:17:21;9.50;99.90
24772;DHT22;12870;52.274;9.754;2023-03-13T03:19:46;9.50;99.90
24772;DHT22;12870;52.274;9.754;2023-03-13T03:22:12;9.50;99.90
24772;DHT22;12870;52.274;9.754;2023-03-13T03:24:38;9.50;99.90
24772;DHT22;12870;52.274;9.754;2023-03-13T03:27:03;9.50;99.90
24772;DHT22;12870;52.274;9.754;2023-03-13T03:29:29;9.40;99.90
24772;DHT22;12870;52.274;9.754;2023-03-13T03:31:55;9.50;99.90
24772;DHT22;12870;52.274;9.754;2023-03-13T03:34:20;9.40;99.90
24772;DHT22;12870;52.274;9.754;2023-03-13T03:36:46;9.40;99.90
24772;DHT22;12870;52.274;9.754;2023-03-13T03:39:12;9.40;99.90
24772;DHT22;12870;52.274;9.754;2023-03-13T03:41:38;9.40;99.90
24772;DHT22;12870;52.274;9.754;2023-03-13T03:44:04;9.40;99.90
24772;DHT22;12870;52.274;9.754;2023-03-13T03:46:30;9.50;99.90
24772;DHT22;12870;52.274;9.754;2023-03-13T03:48:56;9.40;99.90
24772;DHT22;12870;52.274;9.754;2023-03-13T03:51:22;9.50;99.90
24772;DHT22;12870;52.274;9.754;2023-03-13T03:53:47;9.50;99.90
24772;DHT22;12870;52.274;9.754;2023-03-13T03:56:13;9.50;99.90
24772;DHT22;12870;52.274;9.754;2023-03-13T03:58:39;9.50;99.90
24772;DHT22;12870;52.274;9.754;2023-03-13T04:01:05;9.50;99.90
24772;DHT22;12870;52.274;9.754;2023-03-13T04:03:31;9.60;99.90
24772;DHT22;12870;52.274;9.754;2023-03-13T04:05:57;9.60;99.90
24772;DHT22;12870;52.274;9.754;2023-03-13T04:08:23;9.60;99.90
24772;DHT22;12870;52.274;9.754;2023-03-13T04:10:49;9.60;99.90
24772;DHT22;12870;52.274;9.754;2023-03-13T04:13:14;9.50;99.90
24772;DHT22;12870;52.274;9.754;2023-03-13T04:15:41;9.50;99.90
24772;DHT22;12870;52.274;9.754;2023-03-13T04:18:06;9.50;99.90
24772;DHT22;12870;52.274;9.754;2023-03-13T04:20:32;9.50;99.90
24772;DHT22;12870;52.274;9.754;2023-03-13T04:22:58;9.40;99.90
24772;DHT22;12870;52.274;9.754;2023-03-13T04:25:24;9.50;99.90
24772;DHT22;12870;52.274;9.754;2023-03-13T04:27:50;9.50;99.90
24772;DHT22;12870;52.274;9.754;2023-03-13T04:30:16;9.40;99.90
24772;DHT22;12870;52.274;9.754;2023-03-13T04:32:42;9.40;99.90
24772;DHT22;12870;52.274;9.754;2023-03-13T04:35:07;9.30;99.90
24772;DHT22;12870;52.274;9.754;2023-03-13T04:37:33;9.30;99.90
24772;DHT22;12870;52.274;9.754;2023-03-13T04:39:59;9.30;99.90
24772;DHT22;12870;52.274;9.754;2023-03-13T04:42:26;9.20;99.90
24772;DHT22;12870;52.274;9.754;2023-03-13T04:44:52;9.20;99.90
24772;DHT22;12870;52.274;9.754;2023-03-13T04:47:17;9.20;99.90
24772;DHT22;12870;52.274;9.754;2023-03-13T04:49:43;9.20;99.90
24772;DHT22;12870;52.274;9.754;2023-03-13T04:52:09;9.10;99.90
24772;DHT22;12870;52.274;9.754;2023-03-13T04:54:35;9.20;99.90
24772;DHT22;12870;52.274;9.754;2023-03-13T04:57:00;9.20;99.90
24772;DHT22;12870;52.274;9.754;2023-03-13T04:59:26;9.20;99.90
24772;DHT22;12870;52.274;9.754;2023-03-13T05:01:51;9.30;99.90
24772;DHT22;12870;52.274;9.754;2023-03-13T05:04:17;9.30;99.90
24772;DHT22;12870;52.274;9.754;2023-03-13T05:06:43;9.40;99.90
24772;DHT22;12870;52.274;9.754;2023-03-13T05:09:08;9.40;99.90
24772;DHT22;12870;52.274;9.754;2023-03-13T05:11:34;9.40;99.90
24772;DHT22;12870;52.274;9.754;2023-03-13T05:14:00;9.40;99.90
24772;DHT22;12870;52.274;9.754;2023-03-13T05:16:25;9.40;99.90
24772;DHT22;12870;52.274;9.754;2023-03-13T05:18:51;9.40;99.90
24772;DHT22;12870;52.274;9.754;2023-03-13T05:21:17;9.40;99.90
24772;DHT22;12870;52.274;9.754;2023-03-13T05:23:42;9.40;99.90
24772;DHT22;12870;52.274;9.754;2023-03-13T05:26:08;9.40;99.90
24772;DHT22;12870;52.274;9.754;2023-03-13T05:28:34;9.40;99.90
24772;DHT22;12870;52.274;9.754;2023-03-13T05:30:59;9.40;99.90
24772;DHT22;12870;52.274;9.754;2023-03-13T05:33:25;9.50;99.90
24772;DHT22;12870;52.274;9.754;2023-03-13T05:35:51;9.50;99.90
24772;DHT22;12870;52.274;9.754;2023-03-13T05:38:16;9.50;99.90
24772;DHT22;12870;52.274;9.754;2023-03-13T05:40:42;9.50;99.90
24772;DHT22;12870;52.274;9.754;2023-03-13T05:43:08;9.40;99.90
24772;DHT22;12870;52.274;9.754;2023-03-13T05:45:34;9.40;99.90
24772;DHT22;12870;52.274;9.754;2023-03-13T05:47:59;9.50;99.90
24772;DHT22;12870;52.274;9.754;2023-03-13T05:50:25;9.50;99.90
24772;DHT22;12870;52.274;9.754;2023-03-13T05:52:51;9.50;99.90
24772;DHT22;12870;52.274;9.754;2023-03-13T05:55:17;9.60;99.90
24772;DHT22;12870;52.274;9.754;2023-03-13T05:57:44;9.60;99.90
24772;DHT22;12870;52.274;9.754;2023-03-13T06:00:11;9.60;99.90
24772;DHT22;12870;52.274;9.754;2023-03-13T06:02:37;9.60;99.90
24772;DHT22;12870;52.274;9.754;2023-03-13T06:05:03;9.70;99.90
24772;DHT22;12870;52.274;9.754;2023-03-13T06:07:28;9.70;99.90
24772;DHT22;12870;52.274;9.754;2023-03-13T06:09:54;9.70;99.90
24772;DHT22;12870;52.274;9.754;2023-03-13T06:12:19;9.70;99.90
24772;DHT22;12870;52.274;9.754;2023-03-13T06:14:45;9.70;99.90
24772;DHT22;12870;52.274;9.754;2023-03-13T06:17:11;9.70;99.90
24772;DHT22;12870;52.274;9.754;2023-03-13T06:19:37;9.70;99.90
24772;DHT22;12870;52.274;9.754;2023-03-13T06:22:02;9.70;99.90
24772;DHT22;12870;52.274;9.754;2023-03-13T06:24:28;9.70;99.90
24772;DHT22;12870;52.274;9.754;2023-03-13T06:26:54;9.70;99.90
24772;DHT22;12870;52.274;9.754;2023-03-13T06:29:19;9.70;99.90
24772;DHT22;12870;52.274;9.754;2023-03-13T06:31:45;9.70;99.90
24772;DHT22;12870;52.274;9.754;2023-03-13T06:34:11;9.70;99.90
24772;DHT22;12870;52.274;9.754;2023-03-13T06:36:37;9.80;99.90
24772;DHT22;12870;52.274;9.754;2023-03-13T06:39:04;9.80;99.90
24772;DHT22;12870;52.274;9.754;2023-03-13T06:41:30;9.80;99.90
24772;DHT22;12870;52.274;9.754;2023-03-13T06:43:55;9.80;99.90
24772;DHT22;12870;52.274;9.754;2023-03-13T06:46:23;9.90;99.90
24772;DHT22;12870;52.274;9.754;2023-03-13T06:48:49;9.90;99.90
24772;DHT22;12870;52.274;9.754;2023-03-13T06:51:18;9.90;99.90
24772;DHT22;12870;52.274;9.754;2023-03-13T06:53:44;9.90;99.90
24772;DHT22;12870;52.274;9.754;2023-03-13T06:56:11;9.90;99.90
24772;DHT22;12870;52.274;9.754;2023-03-13T06:58:36;10.00;99.90
24772;DHT22;12870;52.274;9.754;2023-03-13T07:01:07;10.10;99.90
24772;DHT22;12870;52.274;9.754;2023-03-13T07:03:33;10.10;99.90
24772;DHT22;12870;52.274;9.754;2023-03-13T07:05:59;10.20;99.90
24772;DHT22;12870;52.274;9.754;2023-03-13T07:08:25;10.30;99.90
24772;DHT22;12870;52.274;9.754;2023-03-13T07:10:52;10.30;99.90
24772;DHT22;12870;52.274;9.754;2023-03-13T07:13:18;10.40;99.90
24772;DHT22;12870;52.274;9.754;2023-03-13T07:15:47;10.40;99.90
24772;DHT22;12870;52.274;9.754;2023-03-13T07:18:13;10.50;99.90
24772;DHT22;12870;52.274;9.754;2023-03-13T07:20:39;10.60;99.90
24772;DHT22;12870;52.274;9.754;2023-03-13T07:23:04;10.70;99.90
24772;DHT22;12870;52.274;9.754;2023-03-13T07:25:30;10.70;99.90
24772;DHT22;12870;52.274;9.754;2023-03-13T07:27:56;10.80;99.90
24772;DHT22;12870;52.274;9.754;2023-03-13T07:30:22;10.80;99.90
24772;DHT22;12870;52.274;9.754;2023-03-13T07:32:47;10.80;99.90
24772;DHT22;12870;52.274;9.754;2023-03-13T07:35:13;10.90;99.90
24772;DHT22;12870;52.274;9.754;2023-03-13T07:37:39;10.90;99.90
24772;DHT22;12870;52.274;9.754;2023-03-13T07:40:05;11.00;99.90
24772;DHT22;12870;52.274;9.754;2023-03-13T07:42:30;11.00;99.90
24772;DHT22;12870;52.274;9.754;2023-03-13T07:44:56;11.00;99.90
24772;DHT22;12870;52.274;9.754;2023-03-13T07:47:22;10.90;99.90
24772;DHT22;12870;52.274;9.754;2023-03-13T07:49:47;10.90;99.90
24772;DHT22;12870;52.274;9.754;2023-03-13T07:52:13;10.90;99.90
24772;DHT22;12870;52.274;9.754;2023-03-13T07:54:39;11.00;99.90
24772;DHT22;12870;52.274;9.754;2023-03-13T07:57:04;11.00;99.90
24772;DHT22;12870;52.274;9.754;2023-03-13T07:59:30;11.10;99.90
24772;DHT22;12870;52.274;9.754;2023-03-13T08:01:56;11.10;99.90
24772;DHT22;12870;52.274;9.754;2023-03-13T08:04:21;11.10;99.90
24772;DHT22;12870;52.274;9.754;2023-03-13T08:06:47;11.20;99.90
24772;DHT22;12870;52.274;9.754;2023-03-13T08:09:13;11.20;99.90
24772;DHT22;12870;52.274;9.754;2023-03-13T08:11:39;11.20;99.90
24772;DHT22;12870;52.274;9.754;2023-03-13T08:14:05;11.30;99.90
24772;DHT22;12870;52.274;9.754;2023-03-13T08:16:33;11.20;99.90
24772;DHT22;12870;52.274;9.754;2023-03-13T08:18:59;11.30;99.90
24772;DHT22;12870;52.274;9.754;2023-03-13T08:21:31;11.30;99.90
24772;DHT22;12870;52.274;9.754;2023-03-13T08:23:59;11.30;99.90
24772;DHT22;12870;52.274;9.754;2023-03-13T08:26:27;11.30;99.90
24772;DHT22;12870;52.274;9.754;2023-03-13T08:28:56;11.40;99.90
24772;DHT22;12870;52.274;9.754;2023-03-13T08:31:24;11.40;99.90
24772;DHT22;12870;52.274;9.754;2023-03-13T08:33:51;11.50;99.90
24772;DHT22;12870;52.274;9.754;2023-03-13T08:36:18;11.60;99.90
24772;DHT22;12870;52.274;9.754;2023-03-13T08:38:44;11.70;99.90
24772;DHT22;12870;52.274;9.754;2023-03-13T08:41:11;11.80;99.90
24772;DHT22;12870;52.274;9.754;2023-03-13T08:43:37;11.80;99.90
24772;DHT22;12870;52.274;9.754;2023-03-13T08:46:03;11.90;99.90
24772;DHT22;12870;52.274;9.754;2023-03-13T08:48:29;12.00;99.90
24772;DHT22;12870;52.274;9.754;2023-03-13T08:51:13;12.10;99.90
24772;DHT22;12870;52.274;9.754;2023-03-13T08:53:41;12.10;99.90
24772;DHT22;12870;52.274;9.754;2023-03-13T08:56:11;12.20;99.90
24772;DHT22;12870;52.274;9.754;2023-03-13T08:58:38;12.30;99.90
24772;DHT22;12870;52.274;9.754;2023-03-13T09:01:09;12.30;99.90
24772;DHT22;12870;52.274;9.754;2023-03-13T09:03:35;12.40;99.90
24772;DHT22;12870;52.274;9.754;2023-03-13T09:06:01;12.50;99.90
24772;DHT22;12870;52.274;9.754;2023-03-13T09:08:28;12.60;99.90
24772;DHT22;12870;52.274;9.754;2023-03-13T09:10:55;12.70;99.90
24772;DHT22;12870;52.274;9.754;2023-03-13T09:13:22;12.70;99.90
24772;DHT22;12870;52.274;9.754;2023-03-13T09:15:56;12.70;99.90
24772;DHT22;12870;52.274;9.754;2023-03-13T09:18:22;12.80;99.90
24772;DHT22;12870;52.274;9.754;2023-03-13T09:20:47;12.90;99.90
24772;DHT22;12870;52.274;9.754;2023-03-13T09:23:13;12.90;99.90
24772;DHT22;12870;52.274;9.754;2023-03-13T09:25:39;13.00;99.90
24772;DHT22;12870;52.274;9.754;2023-03-13T09:28:04;13.10;99.90
24772;DHT22;12870;52.274;9.754;2023-03-13T09:30:30;13.10;99.90
24772;DHT22;12870;52.274;9.754;2023-03-13T09:32:56;13.20;99.90
24772;DHT22;12870;52.274;9.754;2023-03-13T09:35:21;13.20;99.90
24772;DHT22;12870;52.274;9.754;2023-03-13T09:37:47;13.30;99.90
24772;DHT22;12870;52.274;9.754;2023-03-13T09:40:15;13.30;99.90
24772;DHT22;12870;52.274;9.754;2023-03-13T09:42:53;13.40;99.90
24772;DHT22;12870;52.274;9.754;2023-03-13T09:45:31;13.40;99.90
24772;DHT22;12870;52.274;9.754;2023-03-13T09:48:17;13.40;99.90
24772;DHT22;12870;52.274;9.754;2023-03-13T09:53:52;13.50;99.90
24772;DHT22;12870;52.274;9.754;2023-03-13T09:56:29;13.50;99.90
24772;DHT22;12870;52.274;9.754;2023-03-13T09:59:01;13.50;99.90
24772;DHT22;12870;52.274;9.754;2023-03-13T10:01:31;13.50;99.90
24772;DHT22;12870;52.274;9.754;2023-03-13T10:06:40;13.60;99.90
24772;DHT22;12870;52.274;9.754;2023-03-13T10:09:20;13.70;99.90
24772;DHT22;12870;52.274;9.754;2023-03-13T10:14:35;13.90;99.90
24772;DHT22;12870;52.274;9.754;2023-03-13T10:22:45;14.10;99.90
24772;DHT22;12870;52.274;9.754;2023-03-13T10:25:33;14.20;99.90
24772;DHT22;12870;52.274;9.754;2023-03-13T10:28:00;14.20;99.90
24772;DHT22;12870;52.274;9.754;2023-03-13T10:30:29;14.20;99.90
24772;DHT22;12870;52.274;9.754;2023-03-13T10:33:00;14.00;99.90
24772;DHT22;12870;52.274;9.754;2023-03-13T10:35:42;14.00;99.90
24772;DHT22;12870;52.274;9.754;2023-03-13T10:38:11;14.00;99.90
24772;DHT22;12870;52.274;9.754;2023-03-13T10:40:37;14.00;99.90
24772;DHT22;12870;52.274;9.754;2023-03-13T10:43:17;14.00;99.90
24772;DHT22;12870;52.274;9.754;2023-03-13T10:45:43;14.00;99.90
24772;DHT22;12870;52.274;9.754;2023-03-13T10:48:19;14.00;99.90
24772;DHT22;12870;52.274;9.754;2023-03-13T10:50:47;14.10;99.90
24772;DHT22;12870;52.274;9.754;2023-03-13T10:55:54;14.60;99.90
24772;DHT22;12870;52.274;9.754;2023-03-13T11:03:43;15.40;99.90
24772;DHT22;12870;52.274;9.754;2023-03-13T11:06:27;15.60;99.90
24772;DHT22;12870;52.274;9.754;2023-03-13T11:11:25;16.10;99.90
24772;DHT22;12870;52.274;9.754;2023-03-13T11:14:06;16.60;99.90
24772;DHT22;12870;52.274;9.754;2023-03-13T11:16:38;16.90;99.90
24772;DHT22;12870;52.274;9.754;2023-03-13T11:24:41;16.60;99.90
24772;DHT22;12870;52.274;9.754;2023-03-13T11:32:37;17.30;99.90
24772;DHT22;12870;52.274;9.754;2023-03-13T11:37:55;18.10;99.90
24772;DHT22;12870;52.274;9.754;2023-03-13T11:40:31;18.30;99.90
24772;DHT22;12870;52.274;9.754;2023-03-13T11:51:57;18.80;99.90
24772;DHT22;12870;52.274;9.754;2023-03-13T11:56:58;19.10;99.90
24772;DHT22;12870;52.274;9.754;2023-03-13T11:59:50;18.90;99.90
24772;DHT22;12870;52.274;9.754;2023-03-13T12:05:07;19.40;99.90
24772;DHT22;12870;52.274;9.754;2023-03-13T12:07:34;19.20;99.90
24772;DHT22;12870;52.274;9.754;2023-03-13T12:10:26;19.20;99.90
24772;DHT22;12870;52.274;9.754;2023-03-13T12:13:01;19.30;99.90
24772;DHT22;12870;52.274;9.754;2023-03-13T12:15:41;19.40;99.90
24772;DHT22;12870;52.274;9.754;2023-03-13T12:26:46;19.70;99.90
24772;DHT22;12870;52.274;9.754;2023-03-13T12:32:03;19.40;99.90
24772;DHT22;12870;52.274;9.754;2023-03-13T12:37:14;19.80;99.90
24772;DHT22;12870;52.274;9.754;2023-03-13T12:44:48;19.70;99.90
24772;DHT22;12870;52.274;9.754;2023-03-13T12:47:30;20.70;99.90
24772;DHT22;12870;52.274;9.754;2023-03-13T12:50:22;20.80;99.90
24772;DHT22;12870;52.274;9.754;2023-03-13T12:58:53;21.20;99.90
24772;DHT22;12870;52.274;9.754;2023-03-13T13:03:55;20.70;99.90
24772;DHT22;12870;52.274;9.754;2023-03-13T13:06:22;19.90;99.90
24772;DHT22;12870;52.274;9.754;2023-03-13T13:09:01;20.50;99.90
24772;DHT22;12870;52.274;9.754;2023-03-13T13:16:49;20.40;99.90
24772;DHT22;12870;52.274;9.754;2023-03-13T13:24:52;20.10;99.90
24772;DHT22;12870;52.274;9.754;2023-03-13T13:29:58;20.20;99.90
24772;DHT22;12870;52.274;9.754;2023-03-13T13:32:36;20.40;99.90
24772;DHT22;12870;52.274;9.754;2023-03-13T13:37:31;20.00;99.90
24772;DHT22;12870;52.274;9.754;2023-03-13T13:40:17;20.30;99.90
24772;DHT22;12870;52.274;9.754;2023-03-13T13:42:55;20.50;99.90
24772;DHT22;12870;52.274;9.754;2023-03-13T13:47:51;19.60;99.90
24772;DHT22;12870;52.274;9.754;2023-03-13T13:50:36;19.80;99.90
24772;DHT22;12870;52.274;9.754;2023-03-13T13:53:30;19.70;99.90
24772;DHT22;12870;52.274;9.754;2023-03-13T13:55:57;19.80;99.90
24772;DHT22;12870;52.274;9.754;2023-03-13T13:58:27;19.80;99.90
24772;DHT22;12870;52.274;9.754;2023-03-13T14:00:57;20.10;99.90
24772;DHT22;12870;52.274;9.754;2023-03-13T14:03:26;20.30;99.90
24772;DHT22;12870;52.274;9.754;2023-03-13T14:06:15;20.50;99.90
24772;DHT22;12870;52.274;9.754;2023-03-13T14:08:42;20.50;99.90
24772;DHT22;12870;52.274;9.754;2023-03-13T14:14:19;20.50;99.90
24772;DHT22;12870;52.274;9.754;2023-03-13T14:16:53;20.60;99.90
24772;DHT22;12870;52.274;9.754;2023-03-13T14:19:39;20.50;99.90
24772;DHT22;12870;52.274;9.754;2023-03-13T14:22:08;20.40;99.90
24772;DHT22;12870;52.274;9.754;2023-03-13T14:24:34;19.60;99.90
24772;DHT22;12870;52.274;9.754;2023-03-13T14:27:01;19.00;99.90
24772;DHT22;12870;52.274;9.754;2023-03-13T14:29:27;18.50;99.90
24772;DHT22;12870;52.274;9.754;2023-03-13T14:31:59;18.70;99.90
24772;DHT22;12870;52.274;9.754;2023-03-13T14:34:26;19.20;99.90
24772;DHT22;12870;52.274;9.754;2023-03-13T14:36:55;20.00;99.90
24772;DHT22;12870;52.274;9.754;2023-03-13T14:39:42;19.90;99.90
24772;DHT22;12870;52.274;9.754;2023-03-13T14:42:16;20.00;99.90
24772;DHT22;12870;52.274;9.754;2023-03-13T14:44:44;19.80;99.90
24772;DHT22;12870;52.274;9.754;2023-03-13T14:47:29;20.00;99.90
24772;DHT22;12870;52.274;9.754;2023-03-13T14:50:02;19.90;99.90
24772;DHT22;12870;52.274;9.754;2023-03-13T14:52:30;19.70;99.90
24772;DHT22;12870;52.274;9.754;2023-03-13T14:55:02;19.50;99.90
24772;DHT22;12870;52.274;9.754;2023-03-13T14:57:32;19.40;99.90
24772;DHT22;12870;52.274;9.754;2023-03-13T15:00:23;18.80;99.90
24772;DHT22;12870;52.274;9.754;2023-03-13T15:06:04;18.20;99.90
24772;DHT22;12870;52.274;9.754;2023-03-13T15:08:33;17.90;99.90
24772;DHT22;12870;52.274;9.754;2023-03-13T15:10:59;17.70;99.90
24772;DHT22;12870;52.274;9.754;2023-03-13T15:13:36;17.60;99.90
24772;DHT22;12870;52.274;9.754;2023-03-13T15:16:18;17.50;99.90
24772;DHT22;12870;52.274;9.754;2023-03-13T15:18:45;17.60;99.90
24772;DHT22;12870;52.274;9.754;2023-03-13T15:23:37;17.20;99.90
24772;DHT22;12870;52.274;9.754;2023-03-13T15:26:04;17.30;99.90
24772;DHT22;12870;52.274;9.754;2023-03-13T15:28:30;17.40;99.90
24772;DHT22;12870;52.274;9.754;2023-03-13T15:30:56;17.40;99.90
24772;DHT22;12870;52.274;9.754;2023-03-13T15:33:23;17.40;99.90
24772;DHT22;12870;52.274;9.754;2023-03-13T15:35:50;17.30;99.90
24772;DHT22;12870;52.274;9.754;2023-03-13T15:38:18;17.30;99.90
24772;DHT22;12870;52.274;9.754;2023-03-13T15:40:44;17.30;99.90
24772;DHT22;12870;52.274;9.754;2023-03-13T15:43:11;17.40;99.90
24772;DHT22;12870;52.274;9.754;2023-03-13T15:45:39;17.40;99.90
24772;DHT22;12870;52.274;9.754;2023-03-13T15:48:15;17.40;99.90
24772;DHT22;12870;52.274;9.754;2023-03-13T15:50:42;17.40;99.90
24772;DHT22;12870;52.274;9.754;2023-03-13T15:55:46;17.40;99.90
24772;DHT22;12870;52.274;9.754;2023-03-13T15:58:14;17.50;99.90
24772;DHT22;12870;52.274;9.754;2023-03-13T16:00:41;17.50;99.90
24772;DHT22;12870;52.274;9.754;2023-03-13T16:03:16;17.40;99.90
24772;DHT22;12870;52.274;9.754;2023-03-13T16:05:43;17.20;99.90
24772;DHT22;12870;52.274;9.754;2023-03-13T16:08:15;17.20;99.90
24772;DHT22;12870;52.274;9.754;2023-03-13T16:10:40;17.20;99.90
24772;DHT22;12870;52.274;9.754;2023-03-13T16:13:06;17.10;99.90
24772;DHT22;12870;52.274;9.754;2023-03-13T16:15:34;17.00;99.90
24772;DHT22;12870;52.274;9.754;2023-03-13T16:18:00;17.00;99.90
24772;DHT22;12870;52.274;9.754;2023-03-13T16:20:26;16.90;99.90
24772;DHT22;12870;52.274;9.754;2023-03-13T16:22:53;16.80;99.90
24772;DHT22;12870;52.274;9.754;2023-03-13T16:25:20;16.70;99.90
24772;DHT22;12870;52.274;9.754;2023-03-13T16:27:45;16.60;99.90
24772;DHT22;12870;52.274;9.754;2023-03-13T16:30:25;16.70;99.90
24772;DHT22;12870;52.274;9.754;2023-03-13T16:32:51;16.70;99.90
24772;DHT22;12870;52.274;9.754;2023-03-13T16:35:16;16.70;99.90
24772;DHT22;12870;52.274;9.754;2023-03-13T16:37:42;16.60;99.90
24772;DHT22;12870;52.274;9.754;2023-03-13T16:40:16;16.60;99.90
24772;DHT22;12870;52.274;9.754;2023-03-13T16:42:43;16.50;99.90
24772;DHT22;12870;52.274;9.754;2023-03-13T16:45:10;16.40;99.90
24772;DHT22;12870;52.274;9.754;2023-03-13T16:47:36;16.40;99.90
24772;DHT22;12870;52.274;9.754;2023-03-13T16:50:08;16.40;99.90
24772;DHT22;12870;52.274;9.754;2023-03-13T16:52:36;16.40;99.90
24772;DHT22;12870;52.274;9.754;2023-03-13T16:55:02;16.40;99.90
24772;DHT22;12870;52.274;9.754;2023-03-13T16:57:28;16.40;99.90
24772;DHT22;12870;52.274;9.754;2023-03-13T16:59:54;16.40;99.90
24772;DHT22;12870;52.274;9.754;2023-03-13T17:02:19;16.40;99.90
24772;DHT22;12870;52.274;9.754;2023-03-13T17:04:46;16.30;99.90
24772;DHT22;12870;52.274;9.754;2023-03-13T17:07:20;16.20;99.90
24772;DHT22;12870;52.274;9.754;2023-03-13T17:09:48;16.10;99.90
24772;DHT22;12870;52.274;9.754;2023-03-13T17:12:15;16.00;99.90
24772;DHT22;12870;52.274;9.754;2023-03-13T17:14:41;15.90;99.90
24772;DHT22;12870;52.274;9.754;2023-03-13T17:17:25;15.90;99.90
24772;DHT22;12870;52.274;9.754;2023-03-13T17:19:51;15.80;99.90
24772;DHT22;12870;52.274;9.754;2023-03-13T17:22:17;15.80;99.90
24772;DHT22;12870;52.274;9.754;2023-03-13T17:24:43;15.70;99.90
24772;DHT22;12870;52.274;9.754;2023-03-13T17:27:13;15.70;99.90
24772;DHT22;12870;52.274;9.754;2023-03-13T17:29:39;15.70;99.90
24772;DHT22;12870;52.274;9.754;2023-03-13T17:32:05;15.60;99.90
24772;DHT22;12870;52.274;9.754;2023-03-13T17:34:31;15.60;99.90
24772;DHT22;12870;52.274;9.754;2023-03-13T17:36:57;15.60;99.90
24772;DHT22;12870;52.274;9.754;2023-03-13T17:39:25;15.50;99.90
24772;DHT22;12870;52.274;9.754;2023-03-13T17:41:51;15.50;99.90
24772;DHT22;12870;52.274;9.754;2023-03-13T17:44:16;15.40;99.90
24772;DHT22;12870;52.274;9.754;2023-03-13T17:46:46;15.40;99.90